createdAt,value
2022-11-09T00:00:16.849Z,12
2022-11-09T00:05:16.909Z,10
2022-11-09T00:10:16.982Z,14
2022-11-09T00:15:16.932Z,9
2022-11-09T00:20:17.017Z,12
2022-11-09T00:25:16.974Z,10
2022-11-09T00:30:16.955Z,9
2022-11-09T00:35:16.931Z,12
2022-11-09T00:40:17.165Z,10
2022-11-09T00:45:17.046Z,12
2022-11-09T00:50:17.047Z,10
2022-11-09T00:55:17.077Z,7
2022-11-09T01:00:17.063Z,8
2022-11-09T01:05:17.059Z,6
2022-11-09T01:10:17.020Z,10
2022-11-09T01:15:16.991Z,11
2022-11-09T01:20:17.040Z,12
2022-11-09T01:25:17.112Z,11
2022-11-09T01:30:17.141Z,10
2022-11-09T01:35:17.167Z,9
2022-11-09T01:40:17.110Z,9
2022-11-09T01:45:17.091Z,9
2022-11-09T01:50:17.221Z,11
2022-11-09T01:55:17.220Z,9
2022-11-09T02:00:17.187Z,8
2022-11-09T02:05:17.240Z,7
2022-11-09T02:10:17.203Z,9
2022-11-09T02:15:17.238Z,8
2022-11-09T02:20:17.178Z,9
2022-11-09T02:25:17.206Z,7
2022-11-09T02:30:17.260Z,9
2022-11-09T02:35:17.199Z,11
2022-11-09T02:40:17.137Z,10
2022-11-09T02:45:17.462Z,7
2022-11-09T02:50:17.291Z,11
2022-11-09T02:55:17.207Z,7
2022-11-09T03:00:17.239Z,7
2022-11-09T03:05:17.417Z,6
2022-11-09T03:10:17.436Z,8
2022-11-09T03:15:17.243Z,8
2022-11-09T03:20:17.389Z,7
2022-11-09T03:25:17.300Z,8
2022-11-09T03:30:17.308Z,9
2022-11-09T03:35:17.301Z,9
2022-11-09T03:40:17.319Z,9
2022-11-09T03:45:17.347Z,11
2022-11-09T03:50:17.437Z,9
2022-11-09T03:55:17.410Z,8
2022-11-09T04:00:17.458Z,8
2022-11-09T04:05:17.421Z,9
2022-11-09T04:10:15.342Z,8
2022-11-09T04:15:15.353Z,7
2022-11-09T04:20:15.464Z,9
2022-11-09T04:25:15.633Z,8
2022-11-09T04:30:15.507Z,8
2022-11-09T04:35:15.578Z,7
2022-11-09T04:40:15.489Z,9
2022-11-09T04:45:15.416Z,6
2022-11-09T04:50:15.482Z,7
2022-11-09T04:55:15.521Z,8
2022-11-09T05:00:16.628Z,6
2022-11-09T05:05:16.542Z,5
2022-11-09T05:10:16.456Z,7
2022-11-09T05:15:16.520Z,6
2022-11-09T05:20:16.562Z,3
2022-11-09T05:25:16.549Z,7
2022-11-09T05:30:16.652Z,7
2022-11-09T05:35:16.786Z,5
2022-11-09T05:40:16.681Z,6
2022-11-09T05:45:52.136Z,7
2022-11-09T05:50:16.562Z,7
2022-11-09T05:55:16.733Z,5
2022-11-09T06:00:16.682Z,7
2022-11-09T06:05:16.655Z,5
2022-11-09T06:10:16.643Z,6
2022-11-09T06:15:16.732Z,7
2022-11-09T06:20:16.688Z,7
2022-11-09T06:25:16.813Z,5
2022-11-09T06:30:16.612Z,6
2022-11-09T06:35:16.639Z,6
2022-11-09T06:40:16.968Z,6
2022-11-09T06:45:16.761Z,6
2022-11-09T06:50:16.722Z,7
2022-11-09T06:55:16.749Z,5
2022-11-09T07:00:16.747Z,5
2022-11-09T07:05:16.752Z,6
2022-11-09T07:10:16.752Z,4
2022-11-09T07:15:16.775Z,7
2022-11-09T07:20:16.843Z,4
2022-11-09T07:25:16.874Z,6
2022-11-09T07:30:16.780Z,5
2022-11-09T07:35:16.904Z,6
2022-11-09T07:40:16.814Z,6
2022-11-09T07:45:16.816Z,6
2022-11-09T07:50:16.820Z,5
2022-11-09T07:55:16.845Z,6
2022-11-09T08:00:22.461Z,5
2022-11-09T08:05:16.873Z,8
2022-11-09T08:10:16.847Z,8
2022-11-09T08:15:16.948Z,4
2022-11-09T08:20:16.910Z,7
2022-11-09T08:25:16.969Z,5
2022-11-09T08:30:16.969Z,4
2022-11-09T08:35:16.986Z,5
2022-11-09T08:40:16.906Z,2
2022-11-09T08:45:16.930Z,4
2022-11-09T08:50:16.938Z,4
2022-11-09T08:55:17.181Z,4
2022-11-09T09:00:16.970Z,6
2022-11-09T09:05:17.039Z,5
2022-11-09T09:10:17.182Z,5
2022-11-09T09:15:17.056Z,5
2022-11-09T09:20:17.033Z,4
2022-11-09T09:25:17.085Z,2
2022-11-09T09:30:17.052Z,3
2022-11-09T09:35:17.115Z,5
2022-11-09T09:40:17.040Z,4
2022-11-09T09:45:17.066Z,4
2022-11-09T09:50:17.165Z,6
2022-11-09T09:55:17.138Z,2
2022-11-09T10:00:17.076Z,5
2022-11-09T10:05:17.140Z,5
2022-11-09T10:10:17.185Z,6
2022-11-09T10:15:17.234Z,3
2022-11-09T10:20:17.131Z,5
2022-11-09T10:25:27.443Z,6
2022-11-09T10:30:17.136Z,8
2022-11-09T10:35:17.252Z,5
2022-11-09T10:40:17.257Z,3
2022-11-09T10:45:17.217Z,3
2022-11-09T10:50:17.437Z,3
2022-11-09T10:55:17.219Z,2
2022-11-09T11:00:17.172Z,2
2022-11-09T11:05:17.368Z,3
2022-11-09T11:10:17.300Z,3
2022-11-09T11:15:17.258Z,3
2022-11-09T11:20:17.462Z,1
2022-11-09T11:25:17.297Z,2
2022-11-09T11:30:17.380Z,2
2022-11-09T11:35:17.296Z,0
2022-11-09T11:40:17.263Z,2
2022-11-09T11:45:52.885Z,1
2022-11-09T11:50:17.383Z,0
2022-11-09T11:55:17.243Z,0
2022-11-09T12:00:17.356Z,2
2022-11-09T12:05:17.632Z,1
2022-11-09T12:10:15.515Z,0
2022-11-09T12:15:15.495Z,0
2022-11-09T12:20:15.512Z,0
2022-11-09T12:25:15.454Z,1
2022-11-09T12:30:15.593Z,1
2022-11-09T12:35:15.564Z,1
2022-11-09T12:40:15.629Z,2
2022-11-09T12:45:18.856Z,3
2022-11-09T12:50:15.670Z,1
2022-11-09T12:55:15.432Z,3
2022-11-09T13:00:15.543Z,3
2022-11-09T13:05:15.578Z,4
2022-11-09T13:10:15.503Z,6
2022-11-09T13:15:15.524Z,6
2022-11-09T13:20:33.833Z,4
2022-11-09T13:25:15.695Z,4
2022-11-09T13:30:15.575Z,4
2022-11-09T13:35:15.587Z,6
2022-11-09T13:40:15.826Z,5
2022-11-09T13:45:15.659Z,7
2022-11-09T13:50:15.619Z,4
2022-11-09T13:55:15.531Z,4
2022-11-09T14:00:15.690Z,4
2022-11-09T14:05:15.613Z,5
2022-11-09T14:10:15.625Z,5
2022-11-09T14:15:15.606Z,4
2022-11-09T14:20:15.704Z,3
2022-11-09T14:25:15.676Z,4
2022-11-09T14:30:15.850Z,6
2022-11-09T14:35:15.664Z,7
2022-11-09T14:40:15.699Z,5
2022-11-09T14:45:15.693Z,7
2022-11-09T14:50:15.705Z,7
2022-11-09T14:55:15.735Z,5
2022-11-09T15:00:15.768Z,6
2022-11-09T15:05:15.838Z,7
2022-11-09T15:10:15.910Z,7
2022-11-09T15:15:15.873Z,6
2022-11-09T15:20:15.819Z,7
2022-11-09T15:25:15.868Z,5
2022-11-09T15:30:15.798Z,7
2022-11-09T15:35:15.952Z,7
2022-11-09T15:40:15.850Z,6
2022-11-09T15:45:16.095Z,6
2022-11-09T15:50:15.878Z,4
2022-11-09T15:55:15.941Z,4
2022-11-09T16:00:19.783Z,5
2022-11-09T16:05:15.906Z,4
2022-11-09T16:10:15.916Z,5
2022-11-09T16:15:16.000Z,6
2022-11-09T16:20:16.122Z,7
2022-11-09T16:25:16.085Z,5
2022-11-09T16:30:16.000Z,5
2022-11-09T16:35:26.743Z,4
2022-11-09T16:40:16.036Z,7
2022-11-09T16:45:16.021Z,5
2022-11-09T16:50:16.210Z,6
2022-11-09T16:55:15.990Z,7
2022-11-09T17:00:15.958Z,5
2022-11-09T17:05:16.032Z,5
2022-11-09T17:10:15.973Z,2
2022-11-09T17:15:16.307Z,5
2022-11-09T17:20:15.950Z,4
2022-11-09T17:25:16.144Z,5
2022-11-09T17:30:16.104Z,4
2022-11-09T17:35:16.057Z,2
2022-11-09T17:40:16.030Z,3
2022-11-09T17:45:16.215Z,2
2022-11-09T17:50:16.172Z,2
2022-11-09T17:55:16.084Z,1
2022-11-09T18:00:16.203Z,3
2022-11-09T18:05:16.416Z,4
2022-11-09T18:10:16.301Z,2
2022-11-09T18:15:16.133Z,4
2022-11-09T18:20:16.207Z,2
2022-11-09T18:25:16.294Z,3
2022-11-09T18:30:16.196Z,2
2022-11-09T18:35:16.223Z,2
2022-11-09T18:40:16.222Z,1
2022-11-09T18:45:16.216Z,2
2022-11-09T18:50:16.242Z,5
2022-11-09T18:55:16.312Z,5
2022-11-09T19:00:16.251Z,6
2022-11-09T19:05:16.417Z,7
2022-11-09T19:10:16.242Z,5
2022-11-09T19:15:16.381Z,4
2022-11-09T19:20:16.338Z,8
2022-11-09T19:25:16.326Z,8
2022-11-09T19:30:16.362Z,10
2022-11-09T19:35:18.267Z,9
2022-11-09T19:40:16.366Z,10
2022-11-09T19:45:16.408Z,10
2022-11-09T19:50:16.419Z,10
2022-11-09T19:55:16.523Z,10
2022-11-09T20:00:16.419Z,10
2022-11-09T20:05:16.470Z,11
2022-11-09T20:10:16.416Z,10
2022-11-09T20:15:16.402Z,8
2022-11-09T20:20:16.413Z,10
2022-11-09T20:25:16.419Z,10
2022-11-09T20:30:16.398Z,11
2022-11-09T20:35:16.610Z,10
2022-11-09T20:40:16.623Z,9
2022-11-09T20:45:17.107Z,9
2022-11-09T20:50:16.490Z,10
2022-11-09T20:55:16.592Z,9
2022-11-09T21:00:20.373Z,9
2022-11-09T21:05:16.660Z,9
2022-11-09T21:10:16.588Z,8
2022-11-09T21:15:16.663Z,8
2022-11-09T21:20:16.514Z,7
2022-11-09T21:25:16.582Z,8
2022-11-09T21:30:16.549Z,7
2022-11-09T21:35:16.554Z,7
2022-11-09T21:40:16.607Z,8
2022-11-09T21:45:16.670Z,8
2022-11-09T21:50:16.611Z,7
2022-11-09T21:55:16.665Z,8
2022-11-09T22:00:16.796Z,8
2022-11-09T22:05:22.615Z,8
2022-11-09T22:10:16.913Z,8
2022-11-09T22:15:16.703Z,8
2022-11-09T22:20:16.649Z,8
2022-11-09T22:25:16.762Z,7
2022-11-09T22:30:16.724Z,8
2022-11-09T22:35:16.812Z,8
2022-11-09T22:40:16.854Z,9
2022-11-09T22:45:16.742Z,9
2022-11-09T22:50:16.693Z,9
2022-11-09T22:55:16.745Z,7
2022-11-09T23:00:16.811Z,7
2022-11-09T23:05:16.808Z,7
2022-11-09T23:10:16.746Z,7
2022-11-09T23:15:16.799Z,8
2022-11-09T23:20:16.852Z,8
2022-11-09T23:25:16.800Z,8
2022-11-09T23:30:16.884Z,8
2022-11-09T23:35:16.918Z,8
2022-11-09T23:40:16.871Z,9
2022-11-09T23:45:16.836Z,10
2022-11-09T23:50:16.942Z,10
2022-11-09T23:55:17.035Z,10
